Time;durP1;ratioP1;P1;durP2;ratioP2;P2;SDS_P1;SDS_P2;PMS_P1;PMS_P2;Temp;Humidity;BMP_temperature;BMP_pressure;BME280_temperature;BME280_humidity;BME280_pressure;Samples;Min_cycle;Max_cycle;Signal;HPM_P1;HPM_P2
2022/03/29 00:00:59;;;;;;;15.18;8.20;;;;;;;;;;5079577;28;20016;-78
2022/03/29 00:03:25;;;;;;;16.80;8.68;;;;;;;;;;5101685;28;20028;-78
2022/03/29 00:05:50;;;;;;;20.08;8.80;;;;;;;;;;5104245;28;20349;-78
2022/03/29 00:08:15;;;;;;;17.23;8.33;;;;;;;;;;5102133;28;20024;-78
2022/03/29 00:10:41;;;;;;;16.02;9.00;;;;;;;;;;5103332;28;20264;-78
2022/03/29 00:13:06;;;;;;;20.70;8.70;;;;;;;;;;5102861;28;20016;-77
2022/03/29 00:15:31;;;;;;;18.45;8.27;;;;;;;;;;5099204;28;20465;-77
2022/03/29 00:17:57;;;;;;;19.40;8.75;;;;;;;;;;5100742;28;20044;-78
2022/03/29 00:20:22;;;;;;;15.88;8.40;;;;;;;;;;5098348;28;20545;-77
2022/03/29 00:22:47;;;;;;;17.92;8.23;;;;;;;;;;5101549;28;20046;-78
2022/03/29 00:25:14;;;;;;;18.73;8.50;;;;;;;;;;5095510;28;20028;-77
2022/03/29 00:27:39;;;;;;;16.08;8.05;;;;;;;;;;5095960;28;20028;-78
2022/03/29 00:30:07;;;;;;;14.98;8.18;;;;;;;;;;5078094;28;20023;-78
2022/03/29 00:32:33;;;;;;;15.20;7.63;;;;;;;;;;5079315;28;20016;-78
2022/03/29 00:34:58;;;;;;;16.08;7.85;;;;;;;;;;5096001;28;20503;-78
2022/03/29 00:37:23;;;;;;;18.25;8.60;;;;;;;;;;5096020;28;20516;-78
2022/03/29 00:39:48;;;;;;;17.83;9.25;;;;;;;;;;5095507;28;20474;-78
2022/03/29 00:42:14;;;;;;;16.73;8.55;;;;;;;;;;5096172;28;20114;-77
2022/03/29 00:44:39;;;;;;;16.20;8.40;;;;;;;;;;5082014;28;20115;-78
2022/03/29 00:47:05;;;;;;;16.98;8.70;;;;;;;;;;5100822;28;20273;-77
2022/03/29 00:49:30;;;;;;;18.08;8.82;;;;;;;;;;5096403;28;20469;-78
2022/03/29 00:51:58;;;;;;;18.90;9.00;;;;;;;;;;5077249;28;20390;-78
2022/03/29 00:54:25;;;;;;;18.08;8.85;;;;;;;;;;5096118;28;20093;-78
2022/03/29 00:56:51;;;;;;;19.40;8.88;;;;;;;;;;5096106;28;20028;-77
2022/03/29 00:59:17;;;;;;;19.27;8.02;;;;;;;;;;5078635;28;20057;-78
2022/03/29 01:01:42;;;;;;;16.38;8.07;;;;;;;;;;5078122;28;20032;-78
2022/03/29 01:04:08;;;;;;;15.63;7.82;;;;;;;;;;5096476;28;20026;-77
2022/03/29 01:06:33;;;;;;;15.77;7.38;;;;;;;;;;5095404;28;20493;-79
2022/03/29 01:08:59;;;;;;;15.18;7.40;;;;;;;;;;5095656;28;20020;-77
2022/03/29 01:11:25;;;;;;;18.38;7.95;;;;;;;;;;5095547;28;20107;-78
2022/03/29 01:13:51;;;;;;;13.80;7.25;;;;;;;;;;5095715;28;20061;-77
2022/03/29 01:19:00;;;;;;;14.70;7.20;;;;;;;;;;5096566;28;20554;-78
2022/03/29 01:21:31;;;;;;;13.73;7.28;;;;;;;;;;5077745;28;20117;-78
2022/03/29 01:23:58;;;;;;;15.43;7.68;;;;;;;;;;5098133;28;20070;-78
2022/03/29 01:26:23;;;;;;;25.30;11.93;;;;;;;;;;5100559;28;20016;-78
2022/03/29 01:28:49;;;;;;;17.35;8.20;;;;;;;;;;5101346;28;20032;-78
2022/03/29 01:31:14;;;;;;;15.50;7.07;;;;;;;;;;5102156;28;20035;-79
2022/03/29 01:33:42;;;;;;;18.23;7.32;;;;;;;;;;5101244;28;20485;-78
2022/03/29 01:36:08;;;;;;;17.05;7.28;;;;;;;;;;5096036;28;20459;-76
2022/03/29 01:38:33;;;;;;;12.15;6.78;;;;;;;;;;5095435;28;20064;-77
2022/03/29 01:41:05;;;;;;;12.70;6.78;;;;;;;;;;5095995;28;20032;-77
2022/03/29 01:43:30;;;;;;;14.50;7.28;;;;;;;;;;5096359;28;20481;-77
2022/03/29 01:45:55;;;;;;;13.95;7.20;;;;;;;;;;5095891;28;20107;-78
2022/03/29 01:48:21;;;;;;;15.15;7.32;;;;;;;;;;5100088;28;20054;-78
2022/03/29 01:50:48;;;;;;;15.27;7.57;;;;;;;;;;5101135;28;20024;-77
2022/03/29 01:53:28;;;;;;;13.70;6.82;;;;;;;;;;5095049;28;20532;-78
2022/03/29 01:55:57;;;;;;;12.60;6.95;;;;;;;;;;5098094;28;20038;-78
2022/03/29 01:58:32;;;;;;;14.95;7.03;;;;;;;;;;5096047;28;20122;-78
2022/03/29 02:00:58;;;;;;;13.75;7.22;;;;;;;;;;5094727;28;20389;-78
2022/03/29 02:03:23;;;;;;;12.23;6.97;;;;;;;;;;5095312;28;20024;-78
2022/03/29 02:05:49;;;;;;;16.15;7.82;;;;;;;;;;5094547;28;20031;-77
2022/03/29 02:08:16;;;;;;;15.85;7.43;;;;;;;;;;5097934;28;20032;-78
2022/03/29 02:10:41;;;;;;;15.23;8.10;;;;;;;;;;5078905;28;20024;-78
2022/03/29 02:13:09;;;;;;;16.45;7.90;;;;;;;;;;5076449;28;20024;-77
2022/03/29 02:15:36;;;;;;;17.83;8.45;;;;;;;;;;5095552;28;20023;-77
2022/03/29 02:18:01;;;;;;;15.30;8.38;;;;;;;;;;5076797;28;20095;-77
2022/03/29 02:20:27;;;;;;;15.85;7.93;;;;;;;;;;5076410;28;20118;-77
2022/03/29 02:22:52;;;;;;;15.25;7.45;;;;;;;;;;5077397;28;20087;-76
2022/03/29 02:25:17;;;;;;;18.37;7.90;;;;;;;;;;5094679;28;20027;-77
2022/03/29 02:27:44;;;;;;;17.05;8.13;;;;;;;;;;5094226;28;20253;-77
2022/03/29 02:30:12;;;;;;;16.23;7.70;;;;;;;;;;5094732;28;20124;-78
2022/03/29 02:32:38;;;;;;;18.02;7.88;;;;;;;;;;5094872;28;20154;-77
2022/03/29 02:35:04;;;;;;;15.88;8.50;;;;;;;;;;5094396;28;20065;-77
2022/03/29 02:37:30;;;;;;;16.15;7.95;;;;;;;;;;5076903;28;20468;-77
2022/03/29 02:39:55;;;;;;;12.82;6.53;;;;;;;;;;5095361;28;20044;-76
2022/03/29 02:42:20;;;;;;;15.57;8.95;;;;;;;;;;5094658;28;20028;-77
2022/03/29 02:44:45;;;;;;;18.88;8.80;;;;;;;;;;5095754;28;20016;-77
2022/03/29 02:47:11;;;;;;;17.25;8.70;;;;;;;;;;5097164;28;20047;-77
2022/03/29 02:49:36;;;;;;;16.90;8.10;;;;;;;;;;5095944;28;20473;-76
2022/03/29 02:52:02;;;;;;;15.30;8.38;;;;;;;;;;5095391;28;20722;-78
2022/03/29 02:54:28;;;;;;;17.48;8.63;;;;;;;;;;5096294;28;20020;-77
2022/03/29 02:56:53;;;;;;;16.67;8.60;;;;;;;;;;5095800;28;20081;-76
2022/03/29 02:59:19;;;;;;;18.00;7.95;;;;;;;;;;5094558;28;20032;-77
2022/03/29 03:01:44;;;;;;;16.17;7.25;;;;;;;;;;5094991;28;20059;-77
2022/03/29 03:04:12;;;;;;;23.15;7.97;;;;;;;;;;5095725;28;20091;-77
2022/03/29 03:06:41;;;;;;;16.02;9.05;;;;;;;;;;5095503;28;20042;-76
2022/03/29 03:09:07;;;;;;;16.20;8.95;;;;;;;;;;5094936;28;20032;-77
2022/03/29 03:11:32;;;;;;;17.95;9.10;;;;;;;;;;5095908;28;20031;-77
2022/03/29 03:13:57;;;;;;;16.67;8.50;;;;;;;;;;5098884;28;20350;-78
2022/03/29 03:16:23;;;;;;;16.17;8.00;;;;;;;;;;5099380;28;20020;-76
2022/03/29 03:18:48;;;;;;;15.88;8.18;;;;;;;;;;5079608;28;20019;-77
2022/03/29 03:21:13;;;;;;;14.63;8.40;;;;;;;;;;5099306;28;20034;-79
2022/03/29 03:23:39;;;;;;;16.00;8.52;;;;;;;;;;5083142;28;20434;-78
2022/03/29 03:26:07;;;;;;;15.93;8.85;;;;;;;;;;5102021;28;20157;-78
2022/03/29 03:28:33;;;;;;;16.20;8.77;;;;;;;;;;5083417;28;20069;-78
2022/03/29 03:30:58;;;;;;;15.30;8.98;;;;;;;;;;5101868;28;20427;-78
2022/03/29 03:33:24;;;;;;;16.05;9.07;;;;;;;;;;5102371;28;20016;-78
2022/03/29 03:35:49;;;;;;;21.02;9.63;;;;;;;;;;5083453;28;20099;-77
2022/03/29 03:38:14;;;;;;;18.10;9.10;;;;;;;;;;5097899;28;20032;-77
2022/03/29 03:40:41;;;;;;;16.58;9.15;;;;;;;;;;5097059;28;20469;-77
2022/03/29 03:43:07;;;;;;;18.10;9.63;;;;;;;;;;5078521;28;20024;-77
2022/03/29 03:45:32;;;;;;;17.75;8.98;;;;;;;;;;5097299;28;20099;-77
2022/03/29 03:47:57;;;;;;;17.10;9.20;;;;;;;;;;5097552;28;20020;-77
2022/03/29 03:50:22;;;;;;;15.77;9.07;;;;;;;;;;5098895;28;20028;-77
2022/03/29 03:52:49;;;;;;;16.15;7.97;;;;;;;;;;5099303;28;20028;-77
2022/03/29 03:55:15;;;;;;;16.83;8.70;;;;;;;;;;5081495;28;20020;-77
2022/03/29 03:57:41;;;;;;;15.40;8.82;;;;;;;;;;5080753;28;20115;-77
2022/03/29 04:00:07;;;;;;;16.33;9.38;;;;;;;;;;5100315;28;20024;-77
2022/03/29 04:02:32;;;;;;;16.85;9.45;;;;;;;;;;5083522;28;20020;-77
2022/03/29 04:04:57;;;;;;;16.97;9.00;;;;;;;;;;5100916;28;20028;-77
2022/03/29 04:07:22;;;;;;;20.35;9.30;;;;;;;;;;5100143;28;20267;-77
2022/03/29 04:09:48;;;;;;;18.20;9.70;;;;;;;;;;5082700;28;20024;-77
2022/03/29 04:12:13;;;;;;;18.75;9.80;;;;;;;;;;5083961;28;20263;-77
2022/03/29 04:14:38;;;;;;;18.70;10.32;;;;;;;;;;5101216;28;20028;-78
2022/03/29 04:17:04;;;;;;;18.52;9.48;;;;;;;;;;5100677;28;20044;-77
2022/03/29 04:19:30;;;;;;;21.20;9.75;;;;;;;;;;5101314;28;20059;-77
2022/03/29 04:21:55;;;;;;;19.80;9.63;;;;;;;;;;5100370;28;20028;-77
2022/03/29 04:24:20;;;;;;;17.40;9.95;;;;;;;;;;5099528;28;20257;-76
2022/03/29 04:26:47;;;;;;;16.63;9.20;;;;;;;;;;5100288;28;20019;-78
2022/03/29 04:29:12;;;;;;;19.77;9.50;;;;;;;;;;5103137;28;20062;-77
2022/03/29 04:31:37;;;;;;;15.70;9.80;;;;;;;;;;5084688;28;20020;-78
2022/03/29 04:34:04;;;;;;;19.33;9.93;;;;;;;;;;5102144;28;20016;-77
2022/03/29 04:36:29;;;;;;;18.80;9.40;;;;;;;;;;5084280;28;20024;-77
2022/03/29 04:38:57;;;;;;;19.40;9.95;;;;;;;;;;5083182;28;20035;-77
2022/03/29 04:41:22;;;;;;;17.85;10.10;;;;;;;;;;5095781;28;20477;-77
2022/03/29 04:43:48;;;;;;;17.95;9.60;;;;;;;;;;5094829;28;20025;-77
2022/03/29 04:46:13;;;;;;;17.42;9.70;;;;;;;;;;5077040;28;20127;-77
2022/03/29 04:48:38;;;;;;;18.83;10.15;;;;;;;;;;5095911;28;20024;-76
2022/03/29 04:51:03;;;;;;;19.08;10.27;;;;;;;;;;5076655;28;20016;-77
2022/03/29 04:53:29;;;;;;;19.73;10.65;;;;;;;;;;5094982;28;20153;-77
2022/03/29 04:55:55;;;;;;;16.88;9.85;;;;;;;;;;5094781;28;20031;-76
2022/03/29 04:58:21;;;;;;;18.35;10.90;;;;;;;;;;5076703;28;20031;-76
2022/03/29 05:00:46;;;;;;;18.70;10.38;;;;;;;;;;5077389;28;20024;-77
2022/03/29 05:03:11;;;;;;;18.88;10.35;;;;;;;;;;5095631;28;20044;-78
2022/03/29 05:05:37;;;;;;;19.13;10.33;;;;;;;;;;5097022;28;20028;-78
2022/03/29 05:08:02;;;;;;;21.45;10.73;;;;;;;;;;5077616;28;20260;-78
2022/03/29 05:10:27;;;;;;;20.90;11.27;;;;;;;;;;5094750;28;20392;-77
2022/03/29 05:12:53;;;;;;;20.43;11.03;;;;;;;;;;5096277;28;20016;-78
2022/03/29 05:15:19;;;;;;;26.35;12.05;;;;;;;;;;5095681;28;20264;-78
2022/03/29 05:17:45;;;;;;;21.88;10.85;;;;;;;;;;5076750;28;20020;-77
2022/03/29 05:20:11;;;;;;;19.50;10.57;;;;;;;;;;5094762;28;20049;-77
2022/03/29 05:22:48;;;;;;;20.85;10.82;;;;;;;;;;5094497;28;20115;-77
2022/03/29 05:25:15;;;;;;;21.65;10.65;;;;;;;;;;5076518;28;20077;-77
2022/03/29 05:27:41;;;;;;;24.10;12.18;;;;;;;;;;5096081;28;20028;-78
2022/03/29 05:30:07;;;;;;;20.25;10.95;;;;;;;;;;5097803;28;20027;-78
2022/03/29 05:32:32;;;;;;;24.17;11.95;;;;;;;;;;5097957;28;20020;-78
2022/03/29 05:34:57;;;;;;;20.67;11.95;;;;;;;;;;5097527;28;20111;-78
2022/03/29 05:37:23;;;;;;;24.00;10.45;;;;;;;;;;5095995;28;20020;-78
2022/03/29 05:39:48;;;;;;;23.73;10.07;;;;;;;;;;5080589;28;20077;-78
2022/03/29 05:42:14;;;;;;;18.77;11.23;;;;;;;;;;5079766;28;20020;-77
2022/03/29 05:44:39;;;;;;;21.88;11.95;;;;;;;;;;5098501;28;20031;-78
2022/03/29 05:49:50;;;;;;;22.45;11.68;;;;;;;;;;5099351;28;20066;-77
2022/03/29 05:52:15;;;;;;;21.38;11.05;;;;;;;;;;5095215;28;20020;-76
2022/03/29 05:54:44;;;;;;;25.60;11.73;;;;;;;;;;5094979;28;20062;-78
2022/03/29 05:57:11;;;;;;;25.05;12.90;;;;;;;;;;5076645;28;20092;-77
2022/03/29 05:59:36;;;;;;;24.65;12.07;;;;;;;;;;5094770;28;20496;-77
2022/03/29 06:02:04;;;;;;;22.80;11.50;;;;;;;;;;5095878;28;20089;-78
2022/03/29 06:04:30;;;;;;;20.88;11.98;;;;;;;;;;5077711;28;20259;-78
2022/03/29 06:06:55;;;;;;;21.73;11.85;;;;;;;;;;5094865;28;20083;-77
2022/03/29 06:09:21;;;;;;;24.27;12.03;;;;;;;;;;5094988;28;20108;-77
2022/03/29 06:11:46;;;;;;;20.80;11.48;;;;;;;;;;5094577;28;20284;-77
2022/03/29 06:14:11;;;;;;;20.77;11.57;;;;;;;;;;5095460;28;20062;-77
2022/03/29 06:16:36;;;;;;;23.83;12.65;;;;;;;;;;5096298;28;20256;-78
2022/03/29 06:19:02;;;;;;;24.00;12.10;;;;;;;;;;5094965;28;20107;-77
2022/03/29 06:21:27;;;;;;;20.60;12.50;;;;;;;;;;5094878;28;20272;-77
2022/03/29 06:23:52;;;;;;;19.88;11.52;;;;;;;;;;5076038;28;20047;-78
2022/03/29 06:26:18;;;;;;;24.02;11.95;;;;;;;;;;5094532;28;20045;-77
2022/03/29 06:28:43;;;;;;;17.48;10.57;;;;;;;;;;5076675;28;20477;-77
2022/03/29 06:31:09;;;;;;;23.45;12.60;;;;;;;;;;5094797;28;20366;-77
2022/03/29 06:33:35;;;;;;;22.83;10.88;;;;;;;;;;5094433;28;20044;-77
2022/03/29 06:36:00;;;;;;;20.10;10.57;;;;;;;;;;5094579;28;20485;-77
2022/03/29 06:38:25;;;;;;;20.98;11.50;;;;;;;;;;5076832;28;20024;-78
2022/03/29 06:40:52;;;;;;;23.77;10.85;;;;;;;;;;5093425;28;20056;-78
2022/03/29 06:43:18;;;;;;;22.17;11.45;;;;;;;;;;5096031;28;20025;-78
2022/03/29 06:45:43;;;;;;;20.83;11.30;;;;;;;;;;5096519;28;20077;-77
2022/03/29 06:48:08;;;;;;;20.73;11.50;;;;;;;;;;5098345;28;20051;-78
2022/03/29 06:50:35;;;;;;;20.27;10.98;;;;;;;;;;5098606;28;20076;-78
2022/03/29 06:53:01;;;;;;;19.23;11.70;;;;;;;;;;5098977;28;20468;-77
2022/03/29 06:55:27;;;;;;;20.08;11.48;;;;;;;;;;5098543;28;20560;-77
2022/03/29 06:57:53;;;;;;;30.42;12.00;;;;;;;;;;5098514;28;20028;-77
2022/03/29 07:00:18;;;;;;;22.00;11.85;;;;;;;;;;5098386;28;20020;-77
2022/03/29 07:02:44;;;;;;;21.08;12.52;;;;;;;;;;5100898;28;20028;-78
2022/03/29 07:05:10;;;;;;;24.50;11.48;;;;;;;;;;5082440;28;20024;-77
2022/03/29 07:07:35;;;;;;;22.70;13.18;;;;;;;;;;5099992;28;20103;-77
2022/03/29 07:12:48;;;;;;;28.70;14.57;;;;;;;;;;5099294;28;20031;-77
2022/03/29 07:15:14;;;;;;;27.48;13.93;;;;;;;;;;5098060;28;20537;-77
2022/03/29 07:17:39;;;;;;;27.70;13.93;;;;;;;;;;5079381;28;20032;-77
2022/03/29 07:20:05;;;;;;;34.77;15.40;;;;;;;;;;5098031;28;20028;-77
2022/03/29 07:22:30;;;;;;;32.63;14.38;;;;;;;;;;5097482;28;20276;-73
2022/03/29 07:24:55;;;;;;;29.42;14.27;;;;;;;;;;5096248;28;20028;-73
2022/03/29 07:27:21;;;;;;;33.20;15.23;;;;;;;;;;5096013;28;20480;-74
2022/03/29 07:29:46;;;;;;;30.38;14.85;;;;;;;;;;5096649;28;20029;-74
2022/03/29 07:32:11;;;;;;;29.80;15.00;;;;;;;;;;5095823;28;20024;-74
2022/03/29 07:34:37;;;;;;;28.15;14.05;;;;;;;;;;5096109;28;20317;-74
2022/03/29 07:37:03;;;;;;;26.92;14.63;;;;;;;;;;5095800;28;20016;-74
2022/03/29 07:39:28;;;;;;;28.77;14.88;;;;;;;;;;5095632;28;20032;-73
2022/03/29 07:41:55;;;;;;;27.48;14.85;;;;;;;;;;5095358;28;20177;-75
2022/03/29 07:44:20;;;;;;;27.13;14.93;;;;;;;;;;5077108;28;20016;-72
2022/03/29 07:46:46;;;;;;;29.25;15.02;;;;;;;;;;5095250;28;20386;-73
2022/03/29 07:49:11;;;;;;;27.13;14.37;;;;;;;;;;5095805;28;20476;-76
2022/03/29 07:51:36;;;;;;;27.58;14.15;;;;;;;;;;5096184;28;20617;-77
2022/03/29 07:54:03;;;;;;;29.13;14.57;;;;;;;;;;5095006;28;20020;-76
2022/03/29 07:56:28;;;;;;;29.20;14.85;;;;;;;;;;5096891;28;20801;-77
2022/03/29 07:58:56;;;;;;;28.48;14.38;;;;;;;;;;5098155;28;20060;-79
2022/03/29 08:01:21;;;;;;;29.05;15.55;;;;;;;;;;5098837;28;20106;-75
2022/03/29 08:03:46;;;;;;;27.33;15.02;;;;;;;;;;5098546;28;20449;-77
2022/03/29 08:06:12;;;;;;;29.00;14.83;;;;;;;;;;5098330;28;20118;-76
2022/03/29 08:08:37;;;;;;;26.77;14.73;;;;;;;;;;5081139;28;20288;-76
2022/03/29 08:11:04;;;;;;;26.05;14.57;;;;;;;;;;5082856;28;20035;-76
2022/03/29 08:13:29;;;;;;;30.67;15.02;;;;;;;;;;5100199;28;20024;-76
2022/03/29 08:15:56;;;;;;;27.00;14.07;;;;;;;;;;5081947;28;20034;-76
2022/03/29 08:18:21;;;;;;;27.88;14.02;;;;;;;;;;5096789;28;20119;-77
2022/03/29 08:20:47;;;;;;;29.02;14.93;;;;;;;;;;5097360;28;20047;-78
2022/03/29 08:23:12;;;;;;;25.35;13.93;;;;;;;;;;5097920;28;20035;-76
2022/03/29 08:25:40;;;;;;;29.70;14.57;;;;;;;;;;5099300;28;20499;-77
2022/03/29 08:28:06;;;;;;;29.20;15.65;;;;;;;;;;5099242;28;20054;-77
2022/03/29 08:30:32;;;;;;;27.50;15.25;;;;;;;;;;5099917;28;20072;-77
2022/03/29 08:32:59;;;;;;;28.00;14.02;;;;;;;;;;5099535;28;20131;-76
2022/03/29 08:35:24;;;;;;;28.58;15.00;;;;;;;;;;5099054;28;20111;-76
2022/03/29 08:37:49;;;;;;;29.35;15.40;;;;;;;;;;5078328;28;20185;-77
2022/03/29 08:40:21;;;;;;;29.05;14.32;;;;;;;;;;5094724;28;20028;-77
2022/03/29 08:42:47;;;;;;;29.15;15.40;;;;;;;;;;5095850;28;20016;-77
2022/03/29 08:45:15;;;;;;;30.85;15.63;;;;;;;;;;5095956;28;20545;-77
2022/03/29 08:47:42;;;;;;;28.85;16.00;;;;;;;;;;5078161;28;20024;-77
2022/03/29 08:50:09;;;;;;;25.90;14.32;;;;;;;;;;5095740;28;20526;-77
2022/03/29 08:52:35;;;;;;;26.20;12.18;;;;;;;;;;5095395;28;20111;-77
2022/03/29 08:55:03;;;;;;;29.58;15.27;;;;;;;;;;5079074;28;20103;-77
2022/03/29 08:57:31;;;;;;;31.75;15.77;;;;;;;;;;5096751;28;20476;-77
2022/03/29 08:59:57;;;;;;;27.98;13.82;;;;;;;;;;5095784;28;20043;-75
2022/03/29 09:02:23;;;;;;;28.55;14.95;;;;;;;;;;5077503;28;20096;-77
2022/03/29 09:05:08;;;;;;;23.90;13.15;;;;;;;;;;5095597;28;20020;-77
2022/03/29 09:07:56;;;;;;;34.03;15.30;;;;;;;;;;5095459;28;20023;-77
2022/03/29 09:10:38;;;;;;;24.27;14.32;;;;;;;;;;5095685;28;20429;-76
2022/03/29 09:13:27;;;;;;;29.55;13.98;;;;;;;;;;5095990;28;20069;-77
2022/03/29 09:15:55;;;;;;;28.42;14.05;;;;;;;;;;5095720;28;20024;-77
2022/03/29 09:18:21;;;;;;;24.92;14.02;;;;;;;;;;5095126;28;20028;-77
2022/03/29 09:20:47;;;;;;;28.73;14.98;;;;;;;;;;5095732;28;20028;-77
2022/03/29 09:23:17;;;;;;;29.90;15.80;;;;;;;;;;5077801;28;20036;-78
2022/03/29 09:25:47;;;;;;;26.73;14.60;;;;;;;;;;5077732;28;20020;-77
2022/03/29 09:28:14;;;;;;;29.40;14.82;;;;;;;;;;5095745;28;20038;-78
2022/03/29 09:30:48;;;;;;;23.80;13.82;;;;;;;;;;5096096;28;20027;-78
2022/03/29 09:33:15;;;;;;;;;;;;;;;;;;5095980;28;20024;-76
2022/03/29 09:35:58;;;;;;;26.88;13.77;;;;;;;;;;5095567;28;19915;-78
2022/03/29 09:38:30;;;;;;;23.33;11.87;;;;;;;;;;5076769;28;20028;-76
2022/03/29 09:40:56;;;;;;;25.80;13.68;;;;;;;;;;5077167;28;20039;-76
2022/03/29 09:43:24;;;;;;;26.27;13.80;;;;;;;;;;5076524;28;20024;-76
2022/03/29 09:45:51;;;;;;;26.17;13.80;;;;;;;;;;5095033;28;20016;-76
2022/03/29 09:48:24;;;;;;;21.73;13.38;;;;;;;;;;5094895;28;20020;-77
2022/03/29 09:50:53;;;;;;;26.33;15.13;;;;;;;;;;5094884;28;20049;-77
2022/03/29 09:53:39;;;;;;;25.30;14.55;;;;;;;;;;5076468;28;20106;-76
2022/03/29 09:56:06;;;;;;;22.25;10.98;;;;;;;;;;5095268;28;20051;-77
2022/03/29 09:58:31;;;;;;;24.08;13.07;;;;;;;;;;5094047;28;20028;-76
2022/03/29 10:00:57;;;;;;;24.15;14.23;;;;;;;;;;5093880;28;20044;-76
2022/03/29 10:03:27;;;;;;;25.05;14.13;;;;;;;;;;5076455;28;20062;-77
2022/03/29 10:05:54;;;;;;;26.40;14.20;;;;;;;;;;5094403;28;20028;-77
2022/03/29 10:11:13;;;;;;;23.38;13.68;;;;;;;;;;5094651;28;20031;-76
2022/03/29 10:13:39;;;;;;;24.92;13.93;;;;;;;;;;5094187;28;20048;-79
2022/03/29 10:16:04;;;;;;;21.75;11.55;;;;;;;;;;5093609;28;20028;-77
2022/03/29 10:18:30;;;;;;;27.55;15.13;;;;;;;;;;5094143;28;20024;-77
2022/03/29 10:20:57;;;;;;;27.73;15.15;;;;;;;;;;5094225;28;20067;-77
2022/03/29 10:23:24;;;;;;;25.25;14.30;;;;;;;;;;5096980;28;20470;-78
2022/03/29 10:25:51;;;;;;;26.88;15.18;;;;;;;;;;5097218;28;20016;-76
2022/03/29 10:28:17;;;;;;;27.52;14.20;;;;;;;;;;5078667;28;20472;-77
2022/03/29 10:30:43;;;;;;;22.35;13.60;;;;;;;;;;5096528;28;20042;-77
2022/03/29 10:33:23;;;;;;;25.60;14.00;;;;;;;;;;5097292;28;20020;-77
2022/03/29 10:36:14;;;;;;;20.70;11.65;;;;;;;;;;5096142;28;20488;-77
2022/03/29 10:38:48;;;;;;;22.88;12.50;;;;;;;;;;5079901;28;20027;-77
2022/03/29 10:41:25;;;;;;;23.70;13.73;;;;;;;;;;5096715;28;20035;-77
2022/03/29 10:43:52;;;;;;;25.13;13.82;;;;;;;;;;5098011;28;20119;-76
2022/03/29 10:46:37;;;;;;;22.67;12.70;;;;;;;;;;5080688;28;20028;-76
2022/03/29 10:49:25;;;;;;;21.55;12.40;;;;;;;;;;5097644;28;20031;-77
2022/03/29 10:51:57;;;;;;;24.25;14.18;;;;;;;;;;5081353;28;20028;-77
2022/03/29 10:54:33;;;;;;;23.90;12.88;;;;;;;;;;5098742;28;20065;-75
2022/03/29 10:57:02;;;;;;;24.63;13.07;;;;;;;;;;5064052;28;974021;-78
2022/03/29 10:59:29;;;;;;;21.10;12.00;;;;;;;;;;5100435;28;20020;-78
2022/03/29 11:02:15;;;;;;;24.02;12.25;;;;;;;;;;5100180;28;20024;-77
2022/03/29 11:05:09;;;;;;;21.08;12.00;;;;;;;;;;5100193;28;20027;-77
2022/03/29 11:07:52;;;;;;;24.88;12.93;;;;;;;;;;5100310;28;20408;-77
2022/03/29 11:10:23;;;;;;;20.55;12.20;;;;;;;;;;5099558;28;20024;-77
2022/03/29 11:12:53;;;;;;;22.38;11.00;;;;;;;;;;5082390;28;20024;-77
2022/03/29 11:15:25;;;;;;;18.55;10.10;;;;;;;;;;5100955;28;20473;-77
2022/03/29 11:17:51;;;;;;;21.13;12.05;;;;;;;;;;5099518;28;20024;-77
2022/03/29 11:20:36;;;;;;;14.45;8.73;;;;;;;;;;5099970;28;20043;-77
2022/03/29 11:23:06;;;;;;;20.33;11.52;;;;;;;;;;5099499;28;20016;-77
2022/03/29 11:25:45;;;;;;;21.70;11.27;;;;;;;;;;5098757;28;20026;-77
2022/03/29 11:28:13;;;;;;;18.42;9.35;;;;;;;;;;5098452;28;20024;-77
2022/03/29 11:30:39;;;;;;;17.63;10.60;;;;;;;;;;5098639;28;20534;-76
2022/03/29 11:33:06;;;;;;;19.52;10.98;;;;;;;;;;5098151;28;20024;-77
2022/03/29 11:35:36;;;;;;;22.88;12.38;;;;;;;;;;5098054;28;20119;-76
2022/03/29 11:38:16;;;;;;;16.85;10.55;;;;;;;;;;5098393;28;20036;-77
2022/03/29 11:40:42;;;;;;;22.05;11.52;;;;;;;;;;5097649;28;20388;-76
2022/03/29 11:43:14;;;;;;;22.48;13.05;;;;;;;;;;5097337;28;20020;-77
2022/03/29 11:45:40;;;;;;;23.20;12.32;;;;;;;;;;5098435;28;20496;-75
2022/03/29 11:48:12;;;;;;;26.52;12.77;;;;;;;;;;5099603;28;20036;-77
2022/03/29 11:50:45;;;;;;;20.95;11.90;;;;;;;;;;5082115;28;20031;-77
2022/03/29 11:53:23;;;;;;;19.85;11.85;;;;;;;;;;5099339;28;20157;-77
2022/03/29 11:56:06;;;;;;;20.45;12.13;;;;;;;;;;5099963;28;20031;-76
2022/03/29 11:58:39;;;;;;;25.40;13.32;;;;;;;;;;5100325;28;20055;-76
2022/03/29 12:01:07;;;;;;;22.70;12.40;;;;;;;;;;5098725;28;20019;-78
2022/03/29 12:03:35;;;;;;;21.00;12.57;;;;;;;;;;5098221;28;20024;-76
2022/03/29 12:06:04;;;;;;;21.50;12.18;;;;;;;;;;5100710;28;20058;-76
2022/03/29 12:08:52;;;;;;;22.25;12.88;;;;;;;;;;5099791;28;20039;-75
2022/03/29 12:11:45;;;;;;;22.77;12.40;;;;;;;;;;5100906;28;20038;-76
2022/03/29 12:14:12;;;;;;;24.60;12.65;;;;;;;;;;5092068;28;20031;-77
2022/03/29 12:16:43;;;;;;;22.70;13.32;;;;;;;;;;5095821;28;20429;-77
2022/03/29 12:19:16;;;;;;;23.13;13.15;;;;;;;;;;5096039;28;20115;-77
2022/03/29 12:21:48;;;;;;;24.60;14.10;;;;;;;;;;5095788;28;20020;-76
2022/03/29 12:24:15;;;;;;;22.85;13.10;;;;;;;;;;5096179;28;20020;-77
2022/03/29 12:26:48;;;;;;;22.20;12.70;;;;;;;;;;5095701;28;20030;-76
2022/03/29 12:29:18;;;;;;;22.38;13.10;;;;;;;;;;5095817;28;20020;-78
2022/03/29 12:31:44;;;;;;;23.23;12.65;;;;;;;;;;5077219;28;20055;-77
2022/03/29 12:34:12;;;;;;;25.70;14.35;;;;;;;;;;5078328;28;20024;-76
2022/03/29 12:36:41;;;;;;;23.80;13.60;;;;;;;;;;5095636;28;20565;-77
2022/03/29 12:39:09;;;;;;;24.25;14.73;;;;;;;;;;5095053;28;20063;-77
2022/03/29 12:41:44;;;;;;;23.42;13.38;;;;;;;;;;5096487;28;20464;-77
2022/03/29 12:44:12;;;;;;;24.25;12.70;;;;;;;;;;5094130;28;20024;-77
2022/03/29 12:46:40;;;;;;;26.17;13.57;;;;;;;;;;5076697;28;20020;-77
2022/03/29 12:49:05;;;;;;;24.70;14.25;;;;;;;;;;5095511;28;20084;-77
2022/03/29 12:51:36;;;;;;;23.73;14.20;;;;;;;;;;5095685;28;20190;-76
2022/03/29 12:54:11;;;;;;;26.92;14.55;;;;;;;;;;5095320;28;20028;-77
2022/03/29 12:56:43;;;;;;;24.02;13.65;;;;;;;;;;5095547;28;20028;-76
2022/03/29 12:59:27;;;;;;;25.25;14.35;;;;;;;;;;5096253;28;20028;-76
2022/03/29 13:02:13;;;;;;;23.98;13.05;;;;;;;;;;5095509;28;20016;-76
2022/03/29 13:04:47;;;;;;;22.98;12.65;;;;;;;;;;5096112;28;20027;-76
2022/03/29 13:07:43;;;;;;;21.70;12.23;;;;;;;;;;5095995;28;20058;-76
2022/03/29 13:10:19;;;;;;;21.85;12.73;;;;;;;;;;5093668;28;20028;-77
2022/03/29 13:12:50;;;;;;;23.85;13.57;;;;;;;;;;5095006;28;20031;-76
2022/03/29 13:15:36;;;;;;;26.55;13.15;;;;;;;;;;5094917;28;20084;-77
2022/03/29 13:18:02;;;;;;;24.88;13.77;;;;;;;;;;5094454;28;20482;-78
2022/03/29 13:20:27;;;;;;;23.27;12.80;;;;;;;;;;5094959;28;20062;-76
2022/03/29 13:22:52;;;;;;;25.08;13.70;;;;;;;;;;5094046;28;20028;-76
2022/03/29 13:25:34;;;;;;;24.88;13.27;;;;;;;;;;5094318;28;20028;-76
2022/03/29 13:28:00;;;;;;;22.17;12.80;;;;;;;;;;5094603;28;20020;-76
2022/03/29 13:30:25;;;;;;;21.58;12.82;;;;;;;;;;5094951;28;20080;-76
2022/03/29 13:32:52;;;;;;;22.73;13.52;;;;;;;;;;5094569;28;20031;-77
2022/03/29 13:35:18;;;;;;;24.70;13.68;;;;;;;;;;5076852;28;20028;-77
2022/03/29 13:37:43;;;;;;;21.83;12.98;;;;;;;;;;5095249;28;20127;-77
2022/03/29 13:40:10;;;;;;;23.08;13.18;;;;;;;;;;5094717;28;20070;-77
2022/03/29 13:42:36;;;;;;;29.10;13.90;;;;;;;;;;5076444;28;20047;-76
2022/03/29 13:45:01;;;;;;;24.17;13.77;;;;;;;;;;5094429;28;20535;-77
2022/03/29 13:47:26;;;;;;;26.58;13.45;;;;;;;;;;5094246;28;20428;-77
2022/03/29 13:49:52;;;;;;;22.52;13.63;;;;;;;;;;5093692;28;20024;-77
2022/03/29 13:52:17;;;;;;;24.52;13.95;;;;;;;;;;5094020;28;20103;-77
2022/03/29 13:54:43;;;;;;;31.15;14.23;;;;;;;;;;5093657;28;20024;-77
2022/03/29 13:57:08;;;;;;;24.02;13.82;;;;;;;;;;5093765;28;20081;-77
2022/03/29 13:59:33;;;;;;;24.25;13.70;;;;;;;;;;5094451;28;20084;-77
2022/03/29 14:02:01;;;;;;;22.50;13.73;;;;;;;;;;5092456;28;20099;-77
2022/03/29 14:04:27;;;;;;;25.70;13.73;;;;;;;;;;5093672;28;20051;-77
2022/03/29 14:06:52;;;;;;;26.35;13.13;;;;;;;;;;5093438;28;20113;-77
2022/03/29 14:09:17;;;;;;;24.20;13.17;;;;;;;;;;5075798;28;20545;-77
2022/03/29 14:11:42;;;;;;;25.88;14.18;;;;;;;;;;5092509;28;20776;-77
2022/03/29 14:14:07;;;;;;;24.20;14.10;;;;;;;;;;5093547;28;20024;-77
2022/03/29 14:16:33;;;;;;;23.83;13.23;;;;;;;;;;5093544;28;20268;-77
2022/03/29 14:18:58;;;;;;;27.48;13.05;;;;;;;;;;5092436;28;20260;-77
2022/03/29 14:21:23;;;;;;;28.15;13.00;;;;;;;;;;5094117;28;20028;-76
2022/03/29 14:23:49;;;;;;;25.25;13.27;;;;;;;;;;5092585;28;20035;-76
2022/03/29 14:26:16;;;;;;;25.85;13.43;;;;;;;;;;5094058;28;20393;-76
2022/03/29 14:28:41;;;;;;;25.85;14.18;;;;;;;;;;5093548;28;20016;-76
2022/03/29 14:31:07;;;;;;;21.95;13.38;;;;;;;;;;5093893;28;20077;-77
2022/03/29 14:33:32;;;;;;;23.40;13.23;;;;;;;;;;5094818;28;20027;-76
2022/03/29 14:35:58;;;;;;;23.83;13.30;;;;;;;;;;5095379;28;20016;-76